createdAt,value
2022-12-27T00:51:26.848Z,6.90
2022-12-27T00:53:54.348Z,6.90
2022-12-27T00:56:29.036Z,6.80
2022-12-27T00:58:58.360Z,6.80
2022-12-27T01:01:27.174Z,6.70
2022-12-27T01:06:23.634Z,6.70
2022-12-27T01:11:19.403Z,6.60
2022-12-27T01:16:22.623Z,6.50
2022-12-27T01:21:20.406Z,6.30
2022-12-27T01:26:16.951Z,6.30
2022-12-27T01:31:24.855Z,6.20
2022-12-27T01:33:56.071Z,6.10
2022-12-27T01:36:24.596Z,6.10
2022-12-27T01:41:40.076Z,6.00
2022-12-27T01:44:40.967Z,6.00
2022-12-27T01:47:25.998Z,6.00
2022-12-27T01:50:19.957Z,6.00
2022-12-27T01:53:10.647Z,5.90
2022-12-27T01:55:51.858Z,5.90
2022-12-27T01:58:40.585Z,5.80
2022-12-27T02:01:12.436Z,5.90
2022-12-27T02:03:56.010Z,5.80
2022-12-27T02:06:24.610Z,5.80
2022-12-27T02:09:16.653Z,5.80
2022-12-27T02:11:52.346Z,5.70
2022-12-27T02:14:28.346Z,5.70
2022-12-27T02:16:58.129Z,5.60
2022-12-27T02:19:40.199Z,5.70
2022-12-27T02:23:03.537Z,5.60
2022-12-27T02:25:51.146Z,5.50
2022-12-27T02:28:32.905Z,5.50
2022-12-27T02:31:06.271Z,5.40
2022-12-27T02:33:37.540Z,5.40
2022-12-27T02:36:09.199Z,5.40
2022-12-27T02:38:47.987Z,5.30
2022-12-27T02:41:34.563Z,5.20
2022-12-27T02:50:00.063Z,5.10
2022-12-27T02:53:06.970Z,5.00
2022-12-27T02:56:21.557Z,5.00
2022-12-27T02:59:24.884Z,5.00
2022-12-27T03:02:22.551Z,4.90
2022-12-27T03:05:13.717Z,4.90
2022-12-27T03:08:19.893Z,4.80
2022-12-27T03:11:26.219Z,4.80
2022-12-27T03:14:21.229Z,4.80
2022-12-27T03:16:58.122Z,4.80
2022-12-27T03:22:31.077Z,4.70
2022-12-27T03:28:06.679Z,4.80
2022-12-27T03:30:54.812Z,4.80
2022-12-27T03:36:23.375Z,4.70
2022-12-27T03:39:03.688Z,4.70
2022-12-27T03:41:56.322Z,4.60
2022-12-27T03:47:10.726Z,4.60
2022-12-27T03:49:56.337Z,4.60
2022-12-27T03:52:34.727Z,4.50
2022-12-27T04:50:51.630Z,3.80
2022-12-27T04:53:39.750Z,3.80
2022-12-27T05:01:23.968Z,3.70
2022-12-27T05:03:53.225Z,3.60
2022-12-27T05:19:15.317Z,3.30
2022-12-27T05:22:03.255Z,3.30
2022-12-27T05:24:49.839Z,3.20
2022-12-27T06:21:21.091Z,2.80
2022-12-27T06:23:49.341Z,2.70
2022-12-27T06:31:11.596Z,2.70
2022-12-27T06:36:13.862Z,2.70
2022-12-27T06:41:14.334Z,2.70
2022-12-27T06:46:17.004Z,2.60
2022-12-27T06:48:45.751Z,2.70
2022-12-27T06:51:14.355Z,2.70
2022-12-27T06:56:13.520Z,2.70
2022-12-27T07:01:22.483Z,2.70
2022-12-27T07:03:55.404Z,2.70
2022-12-27T07:06:23.870Z,2.70
2022-12-27T07:08:51.570Z,2.70
2022-12-27T07:11:19.882Z,2.70
2022-12-27T07:13:49.243Z,2.70
2022-12-27T07:16:19.820Z,2.70
2022-12-27T07:21:23.132Z,2.70
2022-12-27T07:23:50.992Z,2.70
2022-12-27T07:26:20.657Z,2.80
2022-12-27T07:31:17.424Z,2.70
2022-12-27T07:33:45.014Z,2.70
2022-12-27T07:36:17.613Z,2.70
2022-12-27T07:41:13.108Z,2.80
2022-12-27T07:46:14.758Z,2.90
2022-12-27T07:48:42.180Z,2.90
2022-12-27T07:56:12.659Z,2.90
2022-12-27T07:58:43.665Z,3.00
2022-12-27T08:01:12.021Z,3.00
2022-12-27T08:03:40.468Z,3.00
2022-12-27T08:06:08.957Z,3.00
2022-12-27T08:08:43.919Z,3.00
2022-12-27T08:35:54.038Z,3.50
2022-12-27T08:58:03.015Z,4.20
2022-12-27T09:00:31.281Z,4.20
2022-12-27T09:02:59.079Z,4.40
2022-12-27T09:05:27.411Z,4.40
2022-12-27T09:15:17.111Z,4.60
2022-12-27T09:27:38.076Z,4.70
2022-12-27T09:30:07.504Z,4.80
2022-12-27T09:42:57.693Z,5.00
2022-12-27T09:45:39.999Z,5.10
2022-12-27T09:48:35.703Z,5.10
2022-12-27T09:51:08.607Z,5.20
2022-12-27T09:53:57.285Z,5.20
2022-12-27T09:56:40.864Z,5.20
2022-12-27T09:59:31.695Z,5.30
2022-12-27T10:01:59.571Z,5.30
2022-12-27T10:07:49.407Z,5.40
2022-12-27T10:10:47.312Z,5.40
2022-12-27T10:13:53.036Z,5.50
2022-12-27T10:17:18.811Z,5.60
2022-12-27T10:19:58.801Z,5.60
2022-12-27T10:22:38.811Z,5.70
2022-12-27T10:25:12.736Z,5.70
2022-12-27T10:30:19.842Z,5.80
2022-12-27T10:32:48.056Z,5.90
2022-12-27T10:35:18.081Z,6.00
2022-12-27T10:37:46.246Z,6.00
2022-12-27T10:40:23.395Z,6.00
2022-12-27T10:43:03.684Z,6.00
2022-12-27T10:45:36.475Z,6.10
2022-12-27T10:48:21.383Z,6.00
2022-12-27T10:50:58.351Z,6.00
2022-12-27T10:53:38.298Z,6.20
2022-12-27T10:56:21.396Z,6.20
2022-12-27T10:58:56.618Z,6.30
2022-12-27T11:01:31.034Z,6.30
2022-12-27T11:04:22.126Z,6.30
2022-12-27T11:07:10.437Z,6.40
2022-12-27T11:12:28.804Z,6.50
2022-12-27T11:14:59.745Z,6.50
2022-12-27T11:17:33.276Z,6.50
2022-12-27T11:20:22.089Z,6.50
2022-12-27T11:23:23.768Z,6.50
2022-12-27T11:26:01.699Z,6.50
2022-12-27T11:31:05.142Z,6.50
2022-12-27T11:33:41.900Z,6.60
2022-12-27T11:36:10.669Z,6.60
2022-12-27T11:38:39.722Z,6.70
2022-12-27T11:41:48.888Z,6.70
2022-12-27T11:44:24.337Z,6.70
2022-12-27T11:46:59.773Z,6.70
2022-12-27T11:49:36.028Z,6.70
2022-12-27T11:52:40.136Z,6.70
2022-12-27T11:55:22.019Z,6.70
2022-12-27T11:58:10.549Z,6.70
2022-12-27T12:01:14.081Z,6.80
2022-12-27T12:04:23.149Z,6.80
2022-12-27T12:06:56.395Z,6.80
2022-12-27T12:09:35.091Z,6.80
2022-12-27T12:12:37.948Z,6.80
2022-12-27T12:15:35.553Z,6.70
2022-12-27T12:18:13.618Z,6.70
2022-12-27T12:20:59.014Z,6.70
2022-12-27T12:23:59.843Z,6.70
2022-12-27T12:26:33.349Z,6.70
2022-12-27T12:29:27.783Z,6.70
2022-12-27T12:32:19.182Z,6.70
2022-12-27T12:35:27.830Z,6.70
2022-12-27T12:40:33.028Z,6.70
2022-12-27T12:43:18.781Z,6.70
2022-12-27T12:45:53.196Z,6.70
2022-12-27T12:48:29.898Z,6.70
2022-12-27T12:51:17.472Z,6.80
2022-12-27T12:53:59.224Z,6.90
2022-12-27T12:56:53.239Z,6.90
2022-12-27T12:59:26.115Z,6.90
2022-12-27T13:04:34.908Z,7.00
2022-12-27T13:07:19.596Z,6.90
2022-12-27T13:10:07.450Z,6.90
2022-12-27T13:12:53.043Z,7.00
2022-12-27T13:15:28.887Z,6.90
2022-12-27T13:18:22.738Z,7.00
2022-12-27T13:23:45.862Z,6.90
2022-12-27T13:26:39.240Z,6.90
2022-12-27T13:29:43.273Z,6.90
2022-12-27T13:35:20.188Z,6.90
2022-12-27T13:38:16.767Z,6.90
2022-12-27T13:41:10.881Z,7.00
2022-12-27T13:44:03.897Z,7.00
2022-12-27T13:46:57.128Z,6.90
2022-12-27T13:49:45.514Z,6.90
2022-12-27T13:52:35.846Z,6.90
2022-12-27T13:57:58.875Z,6.80
2022-12-27T14:00:35.979Z,6.70
2022-12-27T14:03:23.465Z,6.70
2022-12-27T14:06:16.659Z,6.70
2022-12-27T14:09:04.457Z,6.60
2022-12-27T14:16:40.693Z,6.50
2022-12-27T14:19:22.622Z,6.50
2022-12-27T14:22:06.231Z,6.40
2022-12-27T14:27:27.368Z,6.40
2022-12-27T14:30:22.500Z,6.40
2022-12-27T14:33:26.265Z,6.30
2022-12-27T14:36:21.115Z,6.30
2022-12-27T14:39:19.534Z,6.20
2022-12-27T14:42:11.532Z,6.20
2022-12-27T14:45:19.545Z,6.20
2022-12-27T14:50:34.863Z,6.10
2022-12-27T14:53:35.222Z,5.80
2022-12-27T14:56:13.733Z,5.80
2022-12-27T14:59:09.626Z,5.90
2022-12-27T15:02:15.361Z,5.80
2022-12-27T15:05:09.951Z,5.80
2022-12-27T15:07:58.482Z,5.70
2022-12-27T15:10:47.132Z,5.50
2022-12-27T15:13:54.132Z,5.60
2022-12-27T15:16:26.586Z,5.60
2022-12-27T15:19:15.164Z,5.60
2022-12-27T15:22:05.698Z,5.60
2022-12-27T15:24:53.943Z,5.50
2022-12-27T15:27:40.735Z,5.50
2022-12-27T15:32:49.685Z,5.40
2022-12-27T15:35:49.422Z,5.30
2022-12-27T15:38:36.347Z,5.20
2022-12-27T15:41:09.284Z,5.20
2022-12-27T15:43:50.944Z,5.10
2022-12-27T15:47:08.029Z,5.00
2022-12-27T15:50:11.349Z,4.90
2022-12-27T15:53:00.659Z,4.80
2022-12-27T15:55:54.567Z,4.80
2022-12-27T15:58:26.084Z,4.80
2022-12-27T16:01:27.736Z,4.70
2022-12-27T16:03:58.427Z,4.70
2022-12-27T16:06:34.433Z,4.60
2022-12-27T16:09:23.275Z,4.60
2022-12-27T16:12:04.118Z,4.60
2022-12-27T16:14:34.189Z,4.50
2022-12-27T16:17:26.811Z,4.50
2022-12-27T16:20:19.388Z,4.50
2022-12-27T16:22:56.889Z,4.50
2022-12-27T16:25:31.166Z,4.40
2022-12-27T16:28:06.024Z,4.40
2022-12-27T16:30:49.223Z,4.40
2022-12-27T16:33:31.238Z,4.40
2022-12-27T16:36:19.774Z,4.30
2022-12-27T16:39:04.725Z,4.20
2022-12-27T16:41:50.386Z,4.10
2022-12-27T16:44:38.002Z,4.10
2022-12-27T16:47:23.204Z,4.00
2022-12-27T16:50:28.844Z,3.90
2022-12-27T16:53:34.504Z,3.90
2022-12-27T16:56:25.164Z,3.80
2022-12-27T17:03:49.170Z,3.70
2022-12-27T17:09:24.516Z,3.70
2022-12-27T17:14:29.938Z,3.60
2022-12-27T17:17:00.489Z,3.70
2022-12-27T17:19:51.288Z,3.60
2022-12-27T17:24:48.160Z,3.50
2022-12-27T17:27:20.515Z,3.50
2022-12-27T17:29:59.406Z,3.40
2022-12-27T17:32:41.394Z,3.40
2022-12-27T17:37:54.254Z,3.30
2022-12-27T17:40:26.707Z,3.30
2022-12-27T17:43:44.319Z,3.20
2022-12-27T17:51:11.648Z,3.10
2022-12-27T17:54:07.694Z,3.10
2022-12-27T17:57:05.958Z,3.00
2022-12-27T17:59:37.659Z,3.00
2022-12-27T18:02:19.386Z,2.90
2022-12-27T18:04:50.189Z,2.90
2022-12-27T18:07:27.626Z,2.90
2022-12-27T18:10:17.499Z,2.90
2022-12-27T18:12:50.188Z,2.90
2022-12-27T18:15:20.797Z,2.90
2022-12-27T18:17:53.889Z,2.80
2022-12-27T18:20:33.674Z,2.80
2022-12-27T18:28:06.592Z,2.70
2022-12-27T18:30:39.692Z,2.70
2022-12-27T18:35:34.498Z,2.60
2022-12-27T18:45:29.302Z,2.20
2022-12-27T18:48:02.162Z,2.10
2022-12-27T18:50:32.039Z,2.10
2022-12-27T18:53:08.030Z,2.00
2022-12-27T18:55:36.033Z,2.00
2022-12-27T18:58:19.908Z,2.10
2022-12-27T19:01:13.637Z,2.00
2022-12-27T19:06:13.044Z,2.00
2022-12-27T19:08:51.344Z,2.00
2022-12-27T19:11:24.562Z,2.00
2022-12-27T19:13:55.024Z,2.00
2022-12-27T19:16:34.109Z,2.10
2022-12-27T19:19:10.327Z,2.00
2022-12-27T19:21:39.316Z,2.00
2022-12-27T19:24:24.063Z,1.90
2022-12-27T19:26:51.651Z,1.90
2022-12-27T19:29:27.272Z,1.80
2022-12-27T19:32:05.006Z,1.80
2022-12-27T19:34:42.932Z,1.80
2022-12-27T19:39:38.798Z,1.80
2022-12-27T19:42:10.670Z,1.70
2022-12-27T19:52:36.827Z,1.60
2022-12-27T19:55:15.903Z,1.60
2022-12-27T20:00:16.607Z,1.50
2022-12-27T20:05:12.028Z,1.50
2022-12-27T20:07:40.062Z,1.50
2022-12-27T20:54:24.937Z,0.90
2022-12-27T21:16:35.409Z,0.90
2022-12-27T21:21:33.737Z,0.90
2022-12-27T21:26:30.333Z,1.00
2022-12-27T21:28:58.112Z,1.00
2022-12-27T21:36:22.651Z,0.80
2022-12-27T21:41:19.530Z,0.70
2022-12-27T21:43:48.064Z,0.70
2022-12-27T21:51:18.100Z,0.70
2022-12-27T21:53:46.018Z,0.70
2022-12-27T21:56:14.350Z,0.80
2022-12-27T21:58:42.286Z,0.80
2022-12-27T22:01:15.181Z,0.70
2022-12-27T22:03:44.834Z,0.70
2022-12-27T22:06:20.442Z,0.70
2022-12-27T22:08:49.945Z,0.70
2022-12-27T22:11:18.207Z,0.70
2022-12-27T22:16:18.047Z,0.60
2022-12-27T22:18:45.818Z,0.60
2022-12-27T22:21:16.031Z,0.60
2022-12-27T22:23:45.334Z,0.60
2022-12-27T22:26:14.499Z,0.60
2022-12-27T22:31:11.198Z,0.60
2022-12-27T22:36:08.813Z,0.60
2022-12-27T22:41:10.520Z,0.60
2022-12-27T22:46:09.598Z,0.60
2022-12-27T22:51:14.669Z,0.60
2022-12-27T22:53:42.231Z,0.60
2022-12-27T22:56:17.745Z,0.60
2022-12-27T23:01:21.072Z,0.50
2022-12-27T23:08:43.980Z,0.50
2022-12-27T23:11:14.913Z,0.50
2022-12-27T23:18:37.502Z,0.50
2022-12-27T23:21:20.386Z,0.40
2022-12-27T23:26:20.769Z,0.40
2022-12-27T23:28:49.108Z,0.50
2022-12-27T23:31:17.735Z,0.50
2022-12-27T23:36:13.961Z,0.40
2022-12-27T23:38:42.374Z,0.40
2022-12-27T23:41:14.269Z,0.40
2022-12-27T23:46:32.091Z,0.30
2022-12-27T23:49:01.304Z,0.30
2022-12-27T23:51:29.430Z,0.30
2022-12-27T23:56:26.039Z,0.30
2022-12-27T23:58:55.276Z,0.30
